OIKQ  Dayrestan  Airport

Iran

Add Bookmark
Status
Operational
Latitude Longitude
26° 45' 16" N 55° 54' 8" E
26.754601 55.902401
Local (DST + 5) UTC (GMT + 4)
Mar 29, 2015 10:36 Mar 29, 2015 06:06
Sunrise-Sunset Local UTC
Begin Civil Twilight 06:16 01:46
Sunrise 06:39 02:09
Sunset 07:03 14:33
End Civil Twilight 07:26 14:56

Current Weather

METAR Observed MVFR
OIKQ 290500Z 00000KT 5000 BR NSC 24/21 Q1015 Sun, Mar 29, 2015 @ 05:00 UTC
(1 Hour, 6 Minutes ago)
Marginal Visual Flight Rules
Wind Visibility Clouds Conditions
Calm 5000 meters
  • Clear skies
  • Mist
Temperatures Readings Precipitation
Current Temp 24°C (75°F)
Dewpoint 21°C (70°F)
Humidity 83%
Altimeter 29.97"Hg
Sea Level Pressure 1015mb
Field Elevation 39.37'
None Recorded

Additional weather within a 92.6km radius of OIKQ

Map ICAO Location
OIKB 69.8km N (042°)

24 Hour Weather History

Loading
-

24 Hour Weather Graphs

Loading
-

CheckWX.com is intended as a tool to help pilots better visualize weather data. It is not intended as a substitute for an official weather briefing obtained from a Flight Service Station. CheckWX.com does not meet the FAA requirements for an official pre-flight weather briefing. Therefore, it's important that pilots still call and obtain an official FSS pre-flight weather briefing.